Terminal Aerodrome Forecast
Issued by NWS Albuquerque, NM

Home | Current Version | Previous Version | Text Only | Print | Product List | Glossary On
Versions: 1 2 3 4 5 6 7 8 9 10 11 12 13 14 15 16 17 18 19 20
000
FTUS45 KABQ 140500
TAFABQ
TAF
KABQ 140526Z 1406/1506 10008KT P6SM BKN100
     FM142000 20006KT P6SM VCSH BKN080
      TEMPO 1422/1502 -TSRA OVC050CB
     FM150200 10010KT P6SM VCSH BKN070=

USA.gov is the U.S. government's official web portal to all federal, state and local government web resources and services.